Aeroporto :
LOGIN :

Iscrizione | Disclaimer

   EN    FR    IT 

 










Sommario :    VFR   VFR Marginale   IFR   IFR Intensivo   IFR Molto Intensivo
Visibilità : 
Base nubi : 
>= 8 km
>= 3000ft
5 / 8 km
1000 / 3000 ft
1500m / 5 km
500 / 1000 ft
800 / 1500m
200 / 500 ft
< 800m
< 200 ft
Simboli :   Temporali  Nebbia  Neve Forte  Precipitazioni Forti  Vento > 20 kt
SIGMETs :   Varie  Temporali  Ghiacco  Turbolenza  Onda orograficha  Ceneri Vulcaniche






- Altitudine del aeroporto : 607 ft
- Codice IATA : BCM


LRBC - Bacău

ULTIMO METAR :
  • 190500Z 35011KT CAVOK 25/20 Q1019

METARs OBSOLETI :
  • 190430Z 35011KT CAVOK 25/19 Q1019
  • 190400Z 36009KT 9999 SCT065 24/19 Q1019
  • 190330Z 36009KT 9999 SCT055 24/20 Q1019
  • 190230Z 35009KT 9999 SCT055 24/20 Q1018
  • 190200Z 35010KT 9999 SCT060 25/20 Q1019
  • 190130Z 34009KT CAVOK 24/20 Q1019
  • 190100Z 34010KT CAVOK 24/20 Q1018
  • 190030Z AUTO 34011KT 9999 FEW130/// BKN150/// 25/20 Q1018

TAF TAF LRBC
Valido dal 19 a 03 ore il 19 a 12 ore UTC


190200Z 1903/1912 35012KT CAVOK



MetMap, La meteo Aeronautica in un colpo d'occhio ! - Copyright ORBIFLY Dicembre 2007 - Disclaimer

ORBIFLY MET'MAP TEAM :

Programmazione e sviluppo : Alexandra Zaïnal
Concezione : Baudouin d'Aumeries
Supporto tecnico e logistico : Manuel Goepfert
Aiuto : Marc-Olivier Méhu
Aiuto per la traduzione : Arnaldo La Scala




FONTI E CREDITI :

   NOAA